Time;durP1;ratioP1;P1;durP2;ratioP2;P2;SDS_P1;SDS_P2;PMS_P1;PMS_P2;Temp;Humidity;BMP_temperature;BMP_pressure;BME280_temperature;BME280_humidity;BME280_pressure;Samples;Min_cycle;Max_cycle;Signal;HPM_P1;HPM_P2
2021/07/06 00:00:14;;;;;;;;;;;22.90;63.00;;;;;;5067618;28;20383;-68
2021/07/06 00:02:39;;;;;;;;;;;22.90;63.10;;;;;;5048966;28;19984;-64
2021/07/06 00:05:05;;;;;;;;;;;22.90;63.20;;;;;;5015365;28;19921;-64
2021/07/06 00:07:31;;;;;;;;;;;22.90;63.00;;;;;;5047150;28;19928;-65
2021/07/06 00:09:57;;;;;;;;;;;22.90;63.10;;;;;;5047529;28;19917;-68
2021/07/06 00:12:22;;;;;;;;;;;22.90;63.10;;;;;;5034509;28;19917;-68
2021/07/06 00:14:48;;;;;;;;;;;23.00;63.00;;;;;;5047712;28;20380;-68
2021/07/06 00:17:13;;;;;;;;;;;23.00;62.90;;;;;;5046421;28;19925;-68
2021/07/06 00:19:39;;;;;;;;;;;23.00;63.00;;;;;;5031934;22;20394;-69
2021/07/06 00:22:04;;;;;;;;;;;22.90;63.10;;;;;;5050669;28;19956;-70
2021/07/06 00:24:30;;;;;;;;;;;22.90;63.00;;;;;;5016780;28;20384;-70
2021/07/06 00:26:55;;;;;;;;;;;22.90;63.00;;;;;;5021462;28;19971;-69
2021/07/06 00:29:21;;;;;;;;;;;22.90;63.00;;;;;;5040482;28;19921;-70
2021/07/06 00:31:46;;;;;;;;;;;22.90;63.10;;;;;;5034311;28;19921;-68
2021/07/06 00:34:11;;;;;;;;;;;22.90;63.10;;;;;;5039162;28;20367;-70
2021/07/06 00:36:37;;;;;;;;;;;22.90;63.00;;;;;;5038047;28;19916;-69
2021/07/06 00:39:03;;;;;;;;;;;22.90;62.90;;;;;;5034184;28;19941;-69
2021/07/06 00:41:28;;;;;;;;;;;22.90;63.20;;;;;;5024903;28;19920;-70
2021/07/06 00:43:54;;;;;;;;;;;22.90;63.20;;;;;;5039042;28;20449;-70
2021/07/06 00:46:19;;;;;;;;;;;22.90;63.10;;;;;;5032127;28;19925;-69
2021/07/06 00:48:45;;;;;;;;;;;22.90;63.00;;;;;;5038160;28;19917;-69
2021/07/06 00:51:10;;;;;;;;;;;22.90;62.90;;;;;;5030623;28;20319;-70
2021/07/06 00:53:36;;;;;;;;;;;22.90;62.80;;;;;;5039533;28;20405;-69
2021/07/06 00:56:01;;;;;;;;;;;22.90;63.10;;;;;;5031617;28;19921;-69
2021/07/06 00:58:27;;;;;;;;;;;22.90;62.80;;;;;;5041014;28;20380;-70
2021/07/06 01:00:52;;;;;;;;;;;22.90;62.90;;;;;;5036763;28;20065;-69
2021/07/06 01:03:18;;;;;;;;;;;22.90;62.80;;;;;;5036837;28;19917;-69
2021/07/06 01:05:43;;;;;;;;;;;22.90;62.80;;;;;;5034320;28;20000;-69
2021/07/06 01:08:08;;;;;;;;;;;22.90;62.90;;;;;;5039642;28;19917;-69
2021/07/06 01:10:34;;;;;;;;;;;22.90;63.00;;;;;;5033500;28;19924;-69
2021/07/06 01:13:00;;;;;;;;;;;22.90;62.80;;;;;;5038169;28;20218;-69
2021/07/06 01:15:26;;;;;;;;;;;22.90;63.00;;;;;;5035536;28;19921;-70
2021/07/06 01:18:07;;;;;;;;;;;22.90;62.90;;;;;;5033493;28;19924;-69
2021/07/06 01:20:36;;;;;;;;;;;22.90;63.00;;;;;;5081625;28;20411;-69
2021/07/06 01:23:02;;;;;;;;;;;22.90;63.00;;;;;;5072715;28;19920;-69
2021/07/06 01:25:27;;;;;;;;;;;22.90;63.00;;;;;;5057838;28;20284;-69
2021/07/06 01:27:53;;;;;;;;;;;22.80;63.10;;;;;;5080425;28;19928;-69
2021/07/06 01:30:18;;;;;;;;;;;22.80;63.30;;;;;;5061366;28;19939;-69
2021/07/06 01:32:45;;;;;;;;;;;22.80;63.30;;;;;;5081661;28;19924;-70
2021/07/06 01:35:10;;;;;;;;;;;22.80;63.30;;;;;;5060566;28;19920;-69
2021/07/06 01:37:41;;;;;;;;;;;22.80;63.30;;;;;;5057380;28;19923;-69
2021/07/06 01:40:07;;;;;;;;;;;22.80;63.30;;;;;;5074267;28;19923;-69
2021/07/06 01:42:32;;;;;;;;;;;22.80;63.30;;;;;;5074319;28;19921;-69
2021/07/06 01:45:05;;;;;;;;;;;22.80;63.40;;;;;;5080700;28;20317;-69
2021/07/06 01:47:30;;;;;;;;;;;22.80;63.40;;;;;;5076794;28;19928;-69
2021/07/06 01:49:55;;;;;;;;;;;22.80;63.50;;;;;;5076982;28;19916;-70
2021/07/06 01:52:21;;;;;;;;;;;22.80;63.40;;;;;;5081248;28;20267;-69
2021/07/06 01:54:47;;;;;;;;;;;22.80;63.30;;;;;;5077566;28;19982;-69
2021/07/06 01:57:15;;;;;;;;;;;22.80;63.40;;;;;;5076300;28;20144;-69
2021/07/06 01:59:40;;;;;;;;;;;22.80;63.30;;;;;;5067834;28;19961;-69
2021/07/06 02:02:06;;;;;;;;;;;22.80;63.40;;;;;;5074980;28;19921;-69
2021/07/06 02:04:31;;;;;;;;;;;22.80;63.50;;;;;;5075776;28;19920;-69
2021/07/06 02:06:57;;;;;;;;;;;22.80;63.50;;;;;;5080812;28;19926;-69
2021/07/06 02:09:22;;;;;;;;;;;22.80;63.30;;;;;;5076329;28;20347;-69
2021/07/06 02:11:48;;;;;;;;;;;22.80;63.30;;;;;;5074360;28;20436;-69
2021/07/06 02:14:15;;;;;;;;;;;22.80;63.30;;;;;;5058307;28;19978;-69
2021/07/06 02:16:41;;;;;;;;;;;22.80;63.30;;;;;;5054629;28;19924;-69
2021/07/06 02:19:06;;;;;;;;;;;22.80;63.30;;;;;;5048762;28;20409;-69
2021/07/06 02:21:32;;;;;;;;;;;22.80;63.40;;;;;;5076066;28;19928;-69
2021/07/06 02:23:57;;;;;;;;;;;22.70;63.30;;;;;;5074841;28;19917;-69
2021/07/06 02:26:22;;;;;;;;;;;22.80;63.30;;;;;;5081176;28;20497;-69
2021/07/06 02:28:48;;;;;;;;;;;22.70;63.30;;;;;;5075750;28;19916;-69
2021/07/06 02:31:13;;;;;;;;;;;22.80;63.50;;;;;;5078556;28;22349;-69
2021/07/06 02:33:39;;;;;;;;;;;22.70;63.50;;;;;;5078160;28;19921;-69
2021/07/06 02:36:05;;;;;;;;;;;22.70;63.40;;;;;;5060077;28;20397;-69
2021/07/06 02:38:31;;;;;;;;;;;22.70;63.30;;;;;;5061441;28;19917;-69
2021/07/06 02:40:56;;;;;;;;;;;22.70;63.40;;;;;;5042977;28;19947;-70
2021/07/06 02:43:22;;;;;;;;;;;22.70;63.50;;;;;;5062349;28;19927;-69
2021/07/06 02:45:48;;;;;;;;;;;22.70;63.40;;;;;;5062593;28;20230;-70
2021/07/06 02:48:13;;;;;;;;;;;22.70;63.50;;;;;;5063124;28;20334;-70
2021/07/06 02:50:41;;;;;;;;;;;22.70;63.50;;;;;;5074207;28;19924;-69
2021/07/06 02:53:07;;;;;;;;;;;22.70;63.40;;;;;;5065130;28;19916;-69
2021/07/06 02:55:33;;;;;;;;;;;22.70;63.40;;;;;;5061749;28;19974;-69
2021/07/06 02:57:58;;;;;;;;;;;22.70;63.50;;;;;;5063470;28;19920;-69
2021/07/06 03:00:24;;;;;;;;;;;22.70;63.50;;;;;;5072898;28;19966;-69
2021/07/06 03:02:51;;;;;;;;;;;22.70;63.50;;;;;;5040628;28;20303;-69
2021/07/06 03:05:17;;;;;;;;;;;22.70;63.40;;;;;;5064235;28;19920;-69
2021/07/06 03:07:43;;;;;;;;;;;22.70;63.50;;;;;;5043571;28;19921;-69
2021/07/06 03:10:09;;;;;;;;;;;22.70;63.40;;;;;;5029801;28;19928;-69
2021/07/06 03:12:34;;;;;;;;;;;22.70;63.50;;;;;;5060511;28;20302;-69
2021/07/06 03:15:00;;;;;;;;;;;22.70;63.40;;;;;;5048059;28;19980;-70
2021/07/06 03:17:25;;;;;;;;;;;22.70;63.50;;;;;;5066119;28;19917;-70
2021/07/06 03:19:51;;;;;;;;;;;22.70;63.60;;;;;;5050017;28;19971;-69
2021/07/06 03:22:18;;;;;;;;;;;22.70;63.60;;;;;;5039561;28;21560;-69
2021/07/06 03:24:43;;;;;;;;;;;22.70;63.60;;;;;;5046539;28;20480;-69
2021/07/06 03:27:09;;;;;;;;;;;22.70;63.50;;;;;;5058048;28;19920;-69
2021/07/06 03:29:34;;;;;;;;;;;22.70;63.50;;;;;;5041829;28;19966;-69
2021/07/06 03:32:00;;;;;;;;;;;22.70;63.60;;;;;;5065165;28;19920;-69
2021/07/06 03:34:25;;;;;;;;;;;22.70;63.50;;;;;;5049764;28;19924;-70
2021/07/06 03:36:51;;;;;;;;;;;22.70;63.50;;;;;;5063757;28;19990;-69
2021/07/06 03:39:16;;;;;;;;;;;22.70;63.50;;;;;;5040802;28;19924;-69
2021/07/06 03:41:42;;;;;;;;;;;22.70;63.40;;;;;;5063971;28;19921;-69
2021/07/06 03:44:07;;;;;;;;;;;22.70;63.30;;;;;;5069633;28;19938;-69
2021/07/06 03:46:33;;;;;;;;;;;22.70;63.00;;;;;;5057170;28;20294;-70
2021/07/06 03:49:01;;;;;;;;;;;22.70;62.90;;;;;;5058094;28;19917;-69
2021/07/06 03:51:27;;;;;;;;;;;22.80;63.60;;;;;;5063058;28;19920;-69
2021/07/06 03:53:52;;;;;;;;;;;22.80;62.80;;;;;;5059320;28;20402;-69
2021/07/06 03:56:18;;;;;;;;;;;22.70;62.70;;;;;;5066798;28;19917;-69
2021/07/06 03:58:43;;;;;;;;;;;22.80;62.70;;;;;;5067294;28;20276;-69
2021/07/06 04:01:09;;;;;;;;;;;22.70;62.70;;;;;;5064627;28;19924;-69
2021/07/06 04:03:34;;;;;;;;;;;22.80;62.80;;;;;;5062108;28;19921;-69
2021/07/06 04:06:00;;;;;;;;;;;22.80;62.70;;;;;;5058813;28;19925;-69
2021/07/06 04:08:25;;;;;;;;;;;22.80;62.70;;;;;;5064093;28;19927;-70
2021/07/06 04:10:51;;;;;;;;;;;22.80;62.70;;;;;;5061498;28;20452;-69
2021/07/06 04:13:16;;;;;;;;;;;22.80;62.60;;;;;;5058700;28;19921;-69
2021/07/06 04:15:41;;;;;;;;;;;22.80;62.70;;;;;;5063338;28;19925;-69
2021/07/06 04:18:07;;;;;;;;;;;22.80;62.60;;;;;;5061399;28;19935;-69
2021/07/06 04:20:33;;;;;;;;;;;22.70;62.60;;;;;;5063288;28;20011;-67
2021/07/06 04:22:58;;;;;;;;;;;22.70;62.60;;;;;;5069823;28;19921;-68
2021/07/06 04:25:24;;;;;;;;;;;22.80;62.70;;;;;;5067591;28;20383;-67
2021/07/06 04:27:51;;;;;;;;;;;22.70;62.60;;;;;;5043885;28;19921;-67
2021/07/06 04:30:17;;;;;;;;;;;22.80;62.70;;;;;;5062082;28;20153;-68
2021/07/06 04:32:42;;;;;;;;;;;22.80;62.90;;;;;;5049149;28;19917;-68
2021/07/06 04:35:08;;;;;;;;;;;22.80;63.30;;;;;;5045813;28;19916;-68
2021/07/06 04:37:33;;;;;;;;;;;22.80;63.20;;;;;;5060227;28;19920;-65
2021/07/06 04:40:00;;;;;;;;;;;22.80;63.20;;;;;;5068213;28;19920;-70
2021/07/06 04:42:25;;;;;;;;;;;22.80;63.00;;;;;;5061499;28;19970;-67
2021/07/06 04:44:51;;;;;;;;;;;22.80;62.90;;;;;;5063165;28;20380;-67
2021/07/06 04:47:16;;;;;;;;;;;22.80;63.10;;;;;;5039332;28;19985;-67
2021/07/06 04:49:41;;;;;;;;;;;22.80;63.20;;;;;;5044370;28;19932;-66
2021/07/06 04:52:07;;;;;;;;;;;22.80;63.90;;;;;;5065911;28;20002;-68
2021/07/06 04:54:32;;;;;;;;;;;22.80;63.60;;;;;;5067223;28;19999;-66
2021/07/06 04:56:58;;;;;;;;;;;22.80;63.30;;;;;;5068144;28;20297;-67
2021/07/06 04:59:23;;;;;;;;;;;22.80;63.40;;;;;;5061532;28;19922;-67
2021/07/06 05:01:49;;;;;;;;;;;22.90;63.20;;;;;;5046943;28;19916;-67
2021/07/06 05:04:14;;;;;;;;;;;22.90;63.30;;;;;;5047122;28;19916;-69
2021/07/06 05:06:40;;;;;;;;;;;22.90;63.50;;;;;;5049378;28;20457;-68
2021/07/06 05:09:06;;;;;;;;;;;22.90;63.40;;;;;;5067021;28;20016;-67
2021/07/06 05:11:31;;;;;;;;;;;22.90;63.90;;;;;;5057942;28;20338;-68
2021/07/06 05:13:57;;;;;;;;;;;22.90;63.60;;;;;;5054949;28;19965;-68
2021/07/06 05:16:22;;;;;;;;;;;22.80;63.60;;;;;;5064731;28;19924;-72
2021/07/06 05:18:48;;;;;;;;;;;22.80;63.50;;;;;;5058874;28;19951;-66
2021/07/06 05:21:13;;;;;;;;;;;22.80;63.40;;;;;;5037345;28;19920;-66
2021/07/06 05:23:38;;;;;;;;;;;22.90;63.20;;;;;;5055538;28;19916;-65
2021/07/06 05:26:04;;;;;;;;;;;22.80;63.40;;;;;;5055043;28;20394;-66
2021/07/06 05:28:29;;;;;;;;;;;22.80;63.10;;;;;;5035863;28;19967;-66
2021/07/06 05:30:55;;;;;;;;;;;22.80;64.40;;;;;;5053521;28;19917;-70
2021/07/06 05:33:20;;;;;;;;;;;22.80;64.20;;;;;;5032779;28;20439;-67
2021/07/06 05:35:46;;;;;;;;;;;22.80;63.90;;;;;;5051378;28;20394;-67
2021/07/06 05:38:12;;;;;;;;;;;22.80;63.50;;;;;;5036947;28;19924;-66
2021/07/06 05:40:40;;;;;;;;;;;22.80;63.20;;;;;;5036337;28;20309;-69
2021/07/06 05:43:06;;;;;;;;;;;22.80;62.90;;;;;;5035187;28;19913;-68
2021/07/06 05:45:35;;;;;;;;;;;22.80;62.90;;;;;;5029987;28;19924;-67
2021/07/06 05:48:01;;;;;;;;;;;22.70;62.90;;;;;;5029880;28;19921;-68
2021/07/06 05:50:26;;;;;;;;;;;22.70;62.90;;;;;;5042336;28;20742;-69
2021/07/06 05:52:51;;;;;;;;;;;22.70;62.90;;;;;;5033347;28;19967;-68
2021/07/06 05:55:17;;;;;;;;;;;22.70;62.90;;;;;;5063794;28;19919;-69
2021/07/06 05:57:45;;;;;;;;;;;22.70;62.60;;;;;;5048764;28;19913;-67
2021/07/06 06:00:12;;;;;;;;;;;22.70;62.80;;;;;;5050926;28;19919;-69
2021/07/06 06:02:37;;;;;;;;;;;22.60;63.00;;;;;;5044556;28;19912;-68
2021/07/06 06:05:03;;;;;;;;;;;22.70;63.00;;;;;;5040130;28;19917;-70
2021/07/06 06:07:29;;;;;;;;;;;22.70;63.00;;;;;;5065779;28;19970;-69
2021/07/06 06:09:54;;;;;;;;;;;22.70;63.50;;;;;;5041270;28;19920;-68
2021/07/06 06:12:20;;;;;;;;;;;22.70;63.50;;;;;;5056731;28;19923;-68
2021/07/06 06:14:45;;;;;;;;;;;22.70;63.60;;;;;;5061589;28;19919;-68
2021/07/06 06:17:10;;;;;;;;;;;22.70;63.60;;;;;;5025196;28;19921;-68
2021/07/06 06:19:36;;;;;;;;;;;22.70;63.60;;;;;;5027989;28;19925;-70
2021/07/06 06:22:02;;;;;;;;;;;22.70;63.80;;;;;;5073267;22;19935;-68
2021/07/06 06:24:27;;;;;;;;;;;22.70;64.00;;;;;;5044373;28;20398;-69
2021/07/06 06:26:52;;;;;;;;;;;22.70;63.80;;;;;;5032034;28;19917;-69
2021/07/06 06:29:18;;;;;;;;;;;22.70;63.80;;;;;;5036149;28;19917;-69
2021/07/06 06:31:46;;;;;;;;;;;22.70;63.60;;;;;;5019528;28;19963;-69
2021/07/06 06:34:12;;;;;;;;;;;22.70;63.60;;;;;;5011381;28;20419;-68
2021/07/06 06:36:37;;;;;;;;;;;22.70;63.50;;;;;;5013594;28;19922;-68
2021/07/06 06:39:03;;;;;;;;;;;22.70;63.40;;;;;;5019712;28;19944;-66
2021/07/06 06:41:29;;;;;;;;;;;22.70;63.30;;;;;;5047343;28;19924;-67
2021/07/06 06:43:54;;;;;;;;;;;22.80;63.20;;;;;;5017486;28;19936;-68
2021/07/06 06:46:20;;;;;;;;;;;22.80;63.10;;;;;;5018957;28;19917;-68
2021/07/06 06:48:46;;;;;;;;;;;22.80;63.00;;;;;;5007431;28;20385;-68
2021/07/06 06:51:12;;;;;;;;;;;22.80;63.00;;;;;;5029152;28;19963;-67
2021/07/06 06:53:37;;;;;;;;;;;22.80;63.00;;;;;;5016591;28;19928;-69
2021/07/06 06:56:03;;;;;;;;;;;22.80;63.00;;;;;;5022518;28;20307;-68
2021/07/06 06:58:28;;;;;;;;;;;22.80;63.00;;;;;;5022855;28;19913;-68
2021/07/06 07:00:54;;;;;;;;;;;22.80;63.00;;;;;;5045483;28;19920;-68
2021/07/06 07:03:19;;;;;;;;;;;22.80;63.00;;;;;;5010861;28;20447;-69
2021/07/06 07:05:44;;;;;;;;;;;22.80;63.00;;;;;;5018920;28;19917;-69
2021/07/06 07:08:10;;;;;;;;;;;22.80;63.10;;;;;;5012352;28;19918;-68
2021/07/06 07:10:37;;;;;;;;;;;22.80;63.10;;;;;;5015790;28;19913;-68
2021/07/06 07:13:02;;;;;;;;;;;22.80;63.20;;;;;;5046405;28;19959;-69
2021/07/06 07:15:28;;;;;;;;;;;22.80;63.30;;;;;;5033003;28;19944;-69
2021/07/06 07:17:53;;;;;;;;;;;22.80;63.30;;;;;;5046526;28;19929;-68
2021/07/06 07:20:19;;;;;;;;;;;22.80;63.30;;;;;;5031261;28;20337;-68
2021/07/06 07:22:44;;;;;;;;;;;22.80;63.40;;;;;;5048003;28;19956;-69
2021/07/06 07:25:10;;;;;;;;;;;22.80;63.50;;;;;;5026565;28;19913;-68
2021/07/06 07:27:36;;;;;;;;;;;22.80;63.50;;;;;;5043963;28;19976;-68
2021/07/06 07:30:01;;;;;;;;;;;22.80;63.40;;;;;;5022947;28;19921;-68
2021/07/06 07:32:26;;;;;;;;;;;22.70;63.40;;;;;;5010882;28;19918;-68
2021/07/06 07:34:52;;;;;;;;;;;22.70;63.40;;;;;;5009520;28;20424;-67
2021/07/06 07:37:19;;;;;;;;;;;22.80;63.50;;;;;;5012191;28;19964;-67
2021/07/06 07:39:45;;;;;;;;;;;22.80;63.50;;;;;;5009530;28;19922;-68
2021/07/06 07:42:10;;;;;;;;;;;22.70;63.50;;;;;;5023612;28;20291;-68
2021/07/06 07:44:36;;;;;;;;;;;22.80;63.40;;;;;;5005771;28;19957;-66
2021/07/06 07:47:01;;;;;;;;;;;22.80;63.50;;;;;;5017462;28;19925;-67
2021/07/06 07:49:27;;;;;;;;;;;22.80;63.50;;;;;;5030315;28;20008;-69
2021/07/06 07:51:52;;;;;;;;;;;22.80;63.50;;;;;;5007456;28;19913;-68
2021/07/06 07:54:18;;;;;;;;;;;22.80;63.40;;;;;;5017229;28;19963;-69
2021/07/06 07:56:43;;;;;;;;;;;22.80;63.40;;;;;;5017617;28;19913;-68
2021/07/06 07:59:08;;;;;;;;;;;22.80;63.40;;;;;;5026430;28;19912;-69
2021/07/06 08:01:34;;;;;;;;;;;22.80;63.40;;;;;;5020565;28;19972;-68
2021/07/06 08:03:59;;;;;;;;;;;22.80;63.40;;;;;;5025099;28;19914;-69
2021/07/06 08:06:25;;;;;;;;;;;22.80;63.30;;;;;;5030197;28;19924;-68
2021/07/06 08:08:50;;;;;;;;;;;22.80;63.30;;;;;;5008618;28;19952;-68
2021/07/06 08:11:16;;;;;;;;;;;22.80;63.40;;;;;;5009866;28;19917;-68
2021/07/06 08:13:41;;;;;;;;;;;22.80;63.30;;;;;;5016899;28;19913;-69
2021/07/06 08:16:07;;;;;;;;;;;22.80;63.30;;;;;;5018604;28;19945;-68
2021/07/06 08:18:33;;;;;;;;;;;22.80;63.30;;;;;;5015805;28;19917;-68
2021/07/06 08:20:58;;;;;;;;;;;22.80;63.20;;;;;;5031337;28;20297;-69
2021/07/06 08:23:24;;;;;;;;;;;22.80;63.20;;;;;;5020426;28;19932;-69
2021/07/06 08:25:49;;;;;;;;;;;22.80;63.20;;;;;;5009634;28;19953;-68
2021/07/06 08:28:15;;;;;;;;;;;22.80;63.20;;;;;;5043449;28;19917;-68
2021/07/06 08:30:40;;;;;;;;;;;22.80;63.20;;;;;;5006559;28;19918;-69
2021/07/06 08:33:06;;;;;;;;;;;22.80;63.20;;;;;;5027553;28;19968;-68
2021/07/06 08:35:31;;;;;;;;;;;22.80;63.20;;;;;;5017368;28;20293;-67
2021/07/06 08:37:57;;;;;;;;;;;22.80;63.10;;;;;;5011728;28;19901;-68
2021/07/06 08:40:22;;;;;;;;;;;22.80;63.10;;;;;;5041791;28;19970;-68
2021/07/06 08:42:48;;;;;;;;;;;22.80;63.10;;;;;;5012590;28;19921;-68
2021/07/06 08:45:14;;;;;;;;;;;22.80;63.10;;;;;;5013031;28;19913;-69
2021/07/06 08:47:42;;;;;;;;;;;22.80;63.00;;;;;;5025830;28;19950;-68
2021/07/06 08:50:08;;;;;;;;;;;22.80;63.00;;;;;;5043668;28;19913;-69
2021/07/06 08:52:36;;;;;;;;;;;22.80;62.90;;;;;;5043782;28;19924;-69
2021/07/06 08:55:01;;;;;;;;;;;22.80;62.90;;;;;;5027066;28;19921;-68
2021/07/06 08:57:27;;;;;;;;;;;22.80;62.90;;;;;;5027384;28;19913;-68
2021/07/06 08:59:52;;;;;;;;;;;22.80;62.90;;;;;;5026143;28;20298;-68
2021/07/06 09:02:21;;;;;;;;;;;22.80;62.90;;;;;;5031592;28;19975;-68
2021/07/06 09:04:47;;;;;;;;;;;22.80;62.90;;;;;;5043078;28;19970;-68
2021/07/06 09:07:13;;;;;;;;;;;22.80;62.90;;;;;;5043719;28;19920;-69
2021/07/06 09:09:38;;;;;;;;;;;22.80;62.90;;;;;;5031193;28;19927;-68
2021/07/06 09:12:04;;;;;;;;;;;22.80;63.00;;;;;;5025824;28;19919;-69
2021/07/06 09:14:31;;;;;;;;;;;22.80;63.00;;;;;;5016933;28;19942;-69
2021/07/06 09:17:09;;;;;;;;;;;22.80;62.90;;;;;;5029329;28;19920;-68
2021/07/06 09:19:34;;;;;;;;;;;22.80;63.00;;;;;;5012233;28;20416;-68
2021/07/06 09:22:09;;;;;;;;;;;22.80;62.90;;;;;;5002454;28;20013;-68
2021/07/06 09:24:35;;;;;;;;;;;22.80;62.90;;;;;;5013547;28;19916;-69
2021/07/06 09:27:20;;;;;;;;;;;22.80;62.90;;;;;;5033413;28;19927;-68
2021/07/06 09:30:04;;;;;;;;;;;22.80;62.80;;;;;;5006416;28;20011;-67
2021/07/06 09:32:30;;;;;;;;;;;22.80;63.10;;;;;;5029555;28;20303;-69
2021/07/06 09:34:55;;;;;;;;;;;22.80;62.80;;;;;;5016794;28;19917;-69
2021/07/06 09:37:21;;;;;;;;;;;22.80;62.80;;;;;;5012123;28;19914;-68
2021/07/06 09:39:46;;;;;;;;;;;22.90;62.80;;;;;;5012996;28;19980;-68
2021/07/06 09:42:12;;;;;;;;;;;22.80;62.70;;;;;;5025269;28;19924;-69
2021/07/06 09:44:39;;;;;;;;;;;22.90;62.60;;;;;;5004179;28;19913;-69
2021/07/06 09:47:12;;;;;;;;;;;22.80;62.70;;;;;;5004380;28;19921;-68
2021/07/06 09:49:38;;;;;;;;;;;22.80;62.60;;;;;;5002308;28;19913;-67
2021/07/06 09:52:12;;;;;;;;;;;22.90;62.70;;;;;;5016212;28;20295;-68
2021/07/06 09:54:40;;;;;;;;;;;22.90;62.70;;;;;;5044055;28;19921;-68
2021/07/06 09:57:23;;;;;;;;;;;22.90;62.70;;;;;;5036188;28;19917;-68
2021/07/06 09:59:52;;;;;;;;;;;22.90;62.70;;;;;;5039506;28;19956;-68
2021/07/06 10:02:21;;;;;;;;;;;22.80;62.70;;;;;;4992832;28;20024;-68
2021/07/06 10:04:48;;;;;;;;;;;22.90;62.70;;;;;;5042699;28;19913;-68
2021/07/06 10:07:13;;;;;;;;;;;22.90;62.70;;;;;;5013541;28;19917;-68
2021/07/06 10:09:39;;;;;;;;;;;22.90;62.70;;;;;;5016155;28;20268;-66
2021/07/06 10:12:04;;;;;;;;;;;22.90;62.70;;;;;;5034284;28;19920;-68
2021/07/06 10:14:30;;;;;;;;;;;22.90;62.50;;;;;;5016313;28;19917;-69
2021/07/06 10:16:55;;;;;;;;;;;22.90;62.50;;;;;;5012593;28;19919;-69
2021/07/06 10:19:21;;;;;;;;;;;22.90;62.50;;;;;;5042884;28;19921;-69
2021/07/06 10:21:46;;;;;;;;;;;22.90;62.30;;;;;;5028061;28;19927;-68
2021/07/06 10:24:13;;;;;;;;;;;22.90;62.50;;;;;;5036011;28;19913;-68
2021/07/06 10:26:40;;;;;;;;;;;22.90;62.30;;;;;;5020457;28;20029;-69
2021/07/06 10:29:06;;;;;;;;;;;22.90;62.40;;;;;;5024296;28;19924;-68
2021/07/06 10:31:32;;;;;;;;;;;22.90;62.30;;;;;;5017255;28;19916;-69
2021/07/06 10:34:00;;;;;;;;;;;22.90;62.30;;;;;;5019515;28;19967;-69
2021/07/06 10:36:35;;;;;;;;;;;22.90;62.30;;;;;;5036109;28;19913;-69
2021/07/06 10:39:00;;;;;;;;;;;23.00;62.30;;;;;;5017568;28;19916;-69
2021/07/06 10:41:35;;;;;;;;;;;23.00;62.10;;;;;;5036120;28;19943;-67
2021/07/06 10:44:02;;;;;;;;;;;23.00;62.00;;;;;;5028713;28;20477;-69
2021/07/06 10:46:32;;;;;;;;;;;23.00;61.90;;;;;;5025959;28;19917;-69
2021/07/06 10:49:02;;;;;;;;;;;23.00;61.90;;;;;;5026628;28;20279;-68
2021/07/06 10:51:34;;;;;;;;;;;23.00;62.00;;;;;;5028068;28;20008;-68
2021/07/06 10:54:05;;;;;;;;;;;23.00;61.90;;;;;;5026063;28;19913;-68
2021/07/06 10:56:34;;;;;;;;;;;23.00;61.80;;;;;;5026912;28;19996;-68
2021/07/06 10:59:04;;;;;;;;;;;23.00;61.80;;;;;;5026763;28;19917;-68
2021/07/06 11:01:36;;;;;;;;;;;23.00;61.80;;;;;;5025492;28;20018;-69
2021/07/06 11:04:05;;;;;;;;;;;23.00;62.50;;;;;;5026530;28;20387;-69
2021/07/06 11:06:45;;;;;;;;;;;23.00;61.80;;;;;;5026356;28;20091;-68
2021/07/06 11:09:11;;;;;;;;;;;23.00;61.80;;;;;;5026423;28;20393;-68
2021/07/06 11:11:37;;;;;;;;;;;23.10;61.80;;;;;;5026146;28;19917;-67
2021/07/06 11:14:21;;;;;;;;;;;23.10;61.80;;;;;;5026194;28;19914;-68
2021/07/06 11:17:02;;;;;;;;;;;23.10;61.80;;;;;;5025733;28;19959;-69
2021/07/06 11:19:31;;;;;;;;;;;23.10;61.70;;;;;;5008364;28;19914;-68
2021/07/06 11:22:23;;;;;;;;;;;23.10;61.80;;;;;;5018610;28;20752;-68
2021/07/06 11:24:48;;;;;;;;;;;23.10;61.70;;;;;;5019462;28;19947;-68
2021/07/06 11:27:15;;;;;;;;;;;23.20;61.80;;;;;;5025822;28;19928;-68
2021/07/06 11:29:40;;;;;;;;;;;23.10;61.80;;;;;;5025602;28;19917;-68
2021/07/06 11:32:13;;;;;;;;;;;23.20;61.80;;;;;;5025501;28;19921;-68
2021/07/06 11:34:39;;;;;;;;;;;23.10;61.80;;;;;;5022163;28;19913;-67
2021/07/06 11:37:05;;;;;;;;;;;23.10;61.80;;;;;;5023692;28;20454;-67
2021/07/06 11:39:32;;;;;;;;;;;23.10;61.80;;;;;;5019274;28;19924;-68
2021/07/06 11:41:58;;;;;;;;;;;23.10;61.70;;;;;;5019987;28;19991;-68
2021/07/06 11:44:23;;;;;;;;;;;23.20;61.90;;;;;;5008178;28;20024;-69
2021/07/06 11:46:49;;;;;;;;;;;23.20;61.80;;;;;;5025386;28;19924;-68
2021/07/06 11:49:19;;;;;;;;;;;23.20;61.90;;;;;;5026154;28;20007;-69
2021/07/06 11:51:45;;;;;;;;;;;23.20;61.90;;;;;;5010499;28;21518;-68
2021/07/06 11:54:11;;;;;;;;;;;23.20;61.90;;;;;;5018794;28;19913;-68
2021/07/06 11:56:38;;;;;;;;;;;23.20;62.00;;;;;;5027289;28;20433;-68
2021/07/06 11:59:12;;;;;;;;;;;23.20;61.80;;;;;;5032005;28;20539;-68
2021/07/06 12:01:38;;;;;;;;;;;23.30;62.00;;;;;;5028893;28;20284;-68
2021/07/06 12:04:03;;;;;;;;;;;23.20;61.90;;;;;;5032397;28;19924;-69
2021/07/06 12:06:31;;;;;;;;;;;23.20;62.00;;;;;;5021265;28;20277;-68
2021/07/06 12:09:00;;;;;;;;;;;23.20;61.70;;;;;;5013801;28;20400;-69
2021/07/06 12:11:26;;;;;;;;;;;23.20;61.90;;;;;;5011035;28;19959;-68
2021/07/06 12:14:01;;;;;;;;;;;23.30;61.90;;;;;;5009964;28;19945;-69
2021/07/06 12:16:27;;;;;;;;;;;23.30;61.80;;;;;;5011885;28;19920;-66
2021/07/06 12:19:02;;;;;;;;;;;23.30;61.90;;;;;;5001081;28;19914;-69
2021/07/06 12:21:28;;;;;;;;;;;23.30;61.90;;;;;;5025754;28;19925;-69
2021/07/06 12:23:54;;;;;;;;;;;23.30;61.90;;;;;;5029933;28;19939;-69
2021/07/06 12:26:19;;;;;;;;;;;23.30;61.90;;;;;;5013615;28;20455;-69
2021/07/06 12:28:45;;;;;;;;;;;23.30;62.00;;;;;;5015650;28;20539;-69
2021/07/06 12:31:14;;;;;;;;;;;23.30;61.90;;;;;;5029007;28;20161;-69
2021/07/06 12:33:40;;;;;;;;;;;23.30;61.80;;;;;;5032470;28;19921;-69
2021/07/06 12:36:06;;;;;;;;;;;23.30;61.80;;;;;;5019577;28;19925;-67
2021/07/06 12:38:31;;;;;;;;;;;23.30;61.80;;;;;;5011476;28;19913;-70
2021/07/06 12:40:57;;;;;;;;;;;23.30;61.80;;;;;;5034964;28;19925;-69
2021/07/06 12:43:23;;;;;;;;;;;23.30;61.80;;;;;;5006389;28;19967;-69
2021/07/06 12:45:48;;;;;;;;;;;23.30;61.80;;;;;;5008829;28;19918;-69
2021/07/06 12:48:26;;;;;;;;;;;23.40;61.80;;;;;;5037596;28;19923;-69
2021/07/06 12:50:52;;;;;;;;;;;23.40;61.70;;;;;;5004110;28;19914;-69
2021/07/06 12:53:20;;;;;;;;;;;23.40;61.90;;;;;;5014886;28;19920;-70
2021/07/06 12:55:47;;;;;;;;;;;23.40;61.90;;;;;;5031108;28;20582;-69
2021/07/06 12:58:12;;;;;;;;;;;23.40;61.90;;;;;;5031397;28;19962;-69
2021/07/06 13:00:38;;;;;;;;;;;23.40;61.80;;;;;;5007625;28;20359;-70
2021/07/06 13:03:04;;;;;;;;;;;23.40;61.80;;;;;;5025334;28;19920;-70
2021/07/06 13:05:40;;;;;;;;;;;23.40;61.80;;;;;;5044488;28;19920;-70
2021/07/06 13:08:06;;;;;;;;;;;23.40;61.80;;;;;;5001201;28;19922;-69
2021/07/06 13:10:35;;;;;;;;;;;23.40;61.90;;;;;;5022503;28;19921;-69
2021/07/06 13:13:04;;;;;;;;;;;23.40;62.00;;;;;;5016951;28;20358;-71
2021/07/06 13:15:31;;;;;;;;;;;23.50;61.90;;;;;;5029785;28;20027;-68
2021/07/06 13:17:57;;;;;;;;;;;23.40;62.00;;;;;;5024223;28;19959;-69
2021/07/06 13:20:22;;;;;;;;;;;23.40;61.90;;;;;;5021206;28;19953;-69
2021/07/06 13:22:48;;;;;;;;;;;23.50;62.00;;;;;;5026130;28;19928;-70
2021/07/06 13:25:13;;;;;;;;;;;23.50;62.00;;;;;;5017304;28;20319;-69
2021/07/06 13:27:39;;;;;;;;;;;23.50;62.00;;;;;;5008367;28;20380;-70
2021/07/06 13:30:06;;;;;;;;;;;23.50;62.00;;;;;;5007827;28;19933;-70
2021/07/06 13:32:35;;;;;;;;;;;23.50;61.90;;;;;;5033124;28;20533;-69
2021/07/06 13:35:00;;;;;;;;;;;23.50;62.00;;;;;;5017532;28;19917;-69
2021/07/06 13:37:29;;;;;;;;;;;23.50;62.00;;;;;;5018206;28;19918;-69
2021/07/06 13:39:54;;;;;;;;;;;23.50;62.00;;;;;;5022197;28;20378;-69
2021/07/06 13:42:19;;;;;;;;;;;23.50;62.10;;;;;;5030620;28;19970;-70
2021/07/06 13:44:45;;;;;;;;;;;23.50;62.00;;;;;;5012576;28;19943;-69
2021/07/06 13:47:10;;;;;;;;;;;23.50;62.10;;;;;;5015754;28;19917;-69
2021/07/06 13:49:36;;;;;;;;;;;23.60;62.20;;;;;;5013656;28;19923;-68
2021/07/06 13:52:01;;;;;;;;;;;23.60;62.20;;;;;;5011807;28;19936;-70
2021/07/06 13:54:29;;;;;;;;;;;23.60;62.20;;;;;;5024041;28;20024;-69
2021/07/06 13:56:57;;;;;;;;;;;23.60;62.20;;;;;;5031062;28;19939;-69
2021/07/06 13:59:23;;;;;;;;;;;23.60;62.20;;;;;;5043378;28;19917;-69
2021/07/06 14:01:48;;;;;;;;;;;23.60;62.10;;;;;;5031318;28;19921;-70
2021/07/06 14:04:13;;;;;;;;;;;23.60;62.30;;;;;;5006938;28;19921;-69
2021/07/06 14:06:39;;;;;;;;;;;23.60;62.10;;;;;;5028704;28;19988;-69
2021/07/06 14:09:05;;;;;;;;;;;23.60;62.10;;;;;;5023036;28;19921;-69
2021/07/06 14:11:30;;;;;;;;;;;23.60;62.10;;;;;;5042844;28;19924;-69